sensor_id;sensor_type;location;lat;lon;timestamp;pressure;altitude;pressure_sealevel;temperature;humidity
48041;BME280;33815;48.386;11.738;2022-11-11T00:02:14;98001.00;;;0.16;100.00
48041;BME280;33815;48.386;11.738;2022-11-11T00:04:39;98002.94;;;0.09;100.00
48041;BME280;33815;48.386;11.738;2022-11-11T00:07:04;98006.38;;;0.08;100.00
48041;BME280;33815;48.386;11.738;2022-11-11T00:09:29;98003.88;;;0.07;100.00
48041;BME280;33815;48.386;11.738;2022-11-11T00:11:55;97996.34;;;0.02;100.00
48041;BME280;33815;48.386;11.738;2022-11-11T00:14:20;97992.25;;;-0.04;100.00
48041;BME280;33815;48.386;11.738;2022-11-11T00:16:45;97981.44;;;-0.13;100.00
48041;BME280;33815;48.386;11.738;2022-11-11T00:19:29;97990.56;;;-0.05;100.00
48041;BME280;33815;48.386;11.738;2022-11-11T00:22:20;97995.56;;;0.00;100.00
48041;BME280;33815;48.386;11.738;2022-11-11T00:24:52;97981.25;;;-0.07;100.00
48041;BME280;33815;48.386;11.738;2022-11-11T00:27:33;97983.03;;;-0.09;100.00
48041;BME280;33815;48.386;11.738;2022-11-11T00:29:58;97978.69;;;-0.07;100.00
48041;BME280;33815;48.386;11.738;2022-11-11T00:32:24;97972.88;;;-0.12;100.00
48041;BME280;33815;48.386;11.738;2022-11-11T00:34:56;97974.34;;;-0.05;100.00
48041;BME280;33815;48.386;11.738;2022-11-11T00:37:42;97987.72;;;0.05;100.00
48041;BME280;33815;48.386;11.738;2022-11-11T00:40:09;97977.63;;;-0.02;100.00
48041;BME280;33815;48.386;11.738;2022-11-11T00:42:35;97974.25;;;-0.02;100.00
48041;BME280;33815;48.386;11.738;2022-11-11T00:45:00;97981.25;;;-0.07;100.00
48041;BME280;33815;48.386;11.738;2022-11-11T00:47:26;97984.91;;;-0.14;100.00
48041;BME280;33815;48.386;11.738;2022-11-11T00:50:17;97983.47;;;-0.23;100.00
48041;BME280;33815;48.386;11.738;2022-11-11T00:53:03;97994.66;;;-0.26;100.00
48041;BME280;33815;48.386;11.738;2022-11-11T00:55:29;97981.88;;;-0.27;100.00
48041;BME280;33815;48.386;11.738;2022-11-11T00:57:54;97984.44;;;-0.27;100.00
48041;BME280;33815;48.386;11.738;2022-11-11T01:00:19;97984.59;;;-0.32;100.00
48041;BME280;33815;48.386;11.738;2022-11-11T01:02:45;97983.03;;;-0.36;100.00
48041;BME280;33815;48.386;11.738;2022-11-11T01:05:10;97987.16;;;-0.32;100.00
48041;BME280;33815;48.386;11.738;2022-11-11T01:07:35;97989.13;;;-0.40;100.00
48041;BME280;33815;48.386;11.738;2022-11-11T01:10:00;98006.19;;;-0.39;100.00
48041;BME280;33815;48.386;11.738;2022-11-11T01:12:26;97997.03;;;-0.48;100.00
48041;BME280;33815;48.386;11.738;2022-11-11T01:14:51;97997.06;;;-0.49;100.00
48041;BME280;33815;48.386;11.738;2022-11-11T01:17:17;98007.00;;;-0.39;100.00
48041;BME280;33815;48.386;11.738;2022-11-11T01:19:43;97996.25;;;-0.50;100.00
48041;BME280;33815;48.386;11.738;2022-11-11T01:22:08;98002.09;;;-0.46;100.00
48041;BME280;33815;48.386;11.738;2022-11-11T01:24:33;98007.38;;;-0.51;100.00
48041;BME280;33815;48.386;11.738;2022-11-11T01:26:58;98016.88;;;-0.55;100.00
48041;BME280;33815;48.386;11.738;2022-11-11T01:29:24;98019.34;;;-0.52;100.00
48041;BME280;33815;48.386;11.738;2022-11-11T01:31:49;98018.47;;;-0.50;100.00
48041;BME280;33815;48.386;11.738;2022-11-11T01:34:14;98021.50;;;-0.38;100.00
48041;BME280;33815;48.386;11.738;2022-11-11T01:36:39;98006.19;;;-0.41;100.00
48041;BME280;33815;48.386;11.738;2022-11-11T01:39:05;98012.34;;;-0.46;100.00
48041;BME280;33815;48.386;11.738;2022-11-11T01:41:32;98013.41;;;-0.54;100.00
48041;BME280;33815;48.386;11.738;2022-11-11T01:46:47;97995.84;;;-0.64;100.00
48041;BME280;33815;48.386;11.738;2022-11-11T01:49:45;97993.97;;;-0.59;100.00
48041;BME280;33815;48.386;11.738;2022-11-11T01:52:23;97992.09;;;-0.54;100.00
48041;BME280;33815;48.386;11.738;2022-11-11T01:54:55;97986.22;;;-0.58;100.00
48041;BME280;33815;48.386;11.738;2022-11-11T01:57:31;97985.53;;;-0.63;100.00
48041;BME280;33815;48.386;11.738;2022-11-11T02:00:02;97991.63;;;-0.67;100.00
48041;BME280;33815;48.386;11.738;2022-11-11T02:02:37;97970.69;;;-0.80;100.00
48041;BME280;33815;48.386;11.738;2022-11-11T02:05:05;97990.06;;;-0.71;100.00
48041;BME280;33815;48.386;11.738;2022-11-11T02:07:50;97981.75;;;-0.79;100.00
48041;BME280;33815;48.386;11.738;2022-11-11T02:10:19;97983.56;;;-0.83;100.00
48041;BME280;33815;48.386;11.738;2022-11-11T02:12:45;97993.72;;;-0.80;100.00
48041;BME280;33815;48.386;11.738;2022-11-11T02:15:29;97975.25;;;-0.90;100.00
48041;BME280;33815;48.386;11.738;2022-11-11T02:17:55;97971.91;;;-0.93;100.00
48041;BME280;33815;48.386;11.738;2022-11-11T02:20:23;97990.84;;;-0.69;100.00
48041;BME280;33815;48.386;11.738;2022-11-11T02:25:38;97993.50;;;-0.72;100.00
48041;BME280;33815;48.386;11.738;2022-11-11T02:28:06;97994.25;;;-0.68;100.00
48041;BME280;33815;48.386;11.738;2022-11-11T02:30:32;97993.59;;;-0.75;100.00
48041;BME280;33815;48.386;11.738;2022-11-11T02:32:57;97984.13;;;-0.73;100.00
48041;BME280;33815;48.386;11.738;2022-11-11T02:37:55;97998.91;;;-0.53;100.00
48041;BME280;33815;48.386;11.738;2022-11-11T02:40:26;97990.63;;;-0.61;100.00
48041;BME280;33815;48.386;11.738;2022-11-11T02:42:53;98008.22;;;-0.50;100.00
48041;BME280;33815;48.386;11.738;2022-11-11T02:45:18;98012.41;;;-0.48;100.00
48041;BME280;33815;48.386;11.738;2022-11-11T02:47:44;97999.75;;;-0.53;100.00
48041;BME280;33815;48.386;11.738;2022-11-11T02:50:09;98013.88;;;-0.41;100.00
48041;BME280;33815;48.386;11.738;2022-11-11T02:52:34;98009.31;;;-0.31;100.00
48041;BME280;33815;48.386;11.738;2022-11-11T02:55:00;98019.41;;;-0.25;100.00
48041;BME280;33815;48.386;11.738;2022-11-11T02:57:26;98017.66;;;-0.24;100.00
48041;BME280;33815;48.386;11.738;2022-11-11T02:59:52;98017.44;;;-0.16;100.00
48041;BME280;33815;48.386;11.738;2022-11-11T03:02:17;98022.25;;;-0.07;100.00
48041;BME280;33815;48.386;11.738;2022-11-11T03:04:42;98005.50;;;-0.18;100.00
48041;BME280;33815;48.386;11.738;2022-11-11T03:07:08;98031.63;;;-0.06;100.00
48041;BME280;33815;48.386;11.738;2022-11-11T03:09:33;98043.72;;;-0.10;100.00
48041;BME280;33815;48.386;11.738;2022-11-11T03:11:58;98045.53;;;-0.13;100.00
48041;BME280;33815;48.386;11.738;2022-11-11T03:14:24;98038.09;;;-0.23;100.00
48041;BME280;33815;48.386;11.738;2022-11-11T03:16:49;98040.44;;;-0.15;100.00
48041;BME280;33815;48.386;11.738;2022-11-11T03:19:33;98047.81;;;-0.06;100.00
48041;BME280;33815;48.386;11.738;2022-11-11T03:21:59;98046.19;;;-0.07;100.00
48041;BME280;33815;48.386;11.738;2022-11-11T03:24:25;98036.75;;;-0.06;100.00
48041;BME280;33815;48.386;11.738;2022-11-11T03:27:11;98047.00;;;-0.06;100.00
48041;BME280;33815;48.386;11.738;2022-11-11T03:29:36;98037.84;;;-0.13;100.00
48041;BME280;33815;48.386;11.738;2022-11-11T03:32:02;98041.88;;;-0.06;100.00
48041;BME280;33815;48.386;11.738;2022-11-11T03:34:27;98044.78;;;0.10;100.00
48041;BME280;33815;48.386;11.738;2022-11-11T03:36:52;98050.44;;;0.21;100.00
48041;BME280;33815;48.386;11.738;2022-11-11T03:39:36;98045.31;;;0.21;100.00
48041;BME280;33815;48.386;11.738;2022-11-11T03:42:01;98036.25;;;0.09;100.00
48041;BME280;33815;48.386;11.738;2022-11-11T03:44:27;98053.22;;;0.13;100.00
48041;BME280;33815;48.386;11.738;2022-11-11T03:46:54;98060.91;;;0.13;100.00
48041;BME280;33815;48.386;11.738;2022-11-11T03:49:19;98059.16;;;0.15;100.00
48041;BME280;33815;48.386;11.738;2022-11-11T03:51:44;98058.31;;;0.15;100.00
48041;BME280;33815;48.386;11.738;2022-11-11T03:54:09;98059.19;;;0.14;100.00
48041;BME280;33815;48.386;11.738;2022-11-11T03:56:35;98060.75;;;0.18;100.00
48041;BME280;33815;48.386;11.738;2022-11-11T03:59:00;98044.72;;;0.13;100.00
48041;BME280;33815;48.386;11.738;2022-11-11T04:01:25;98057.38;;;0.17;100.00
48041;BME280;33815;48.386;11.738;2022-11-11T04:04:09;98052.03;;;0.24;100.00
48041;BME280;33815;48.386;11.738;2022-11-11T04:06:53;98047.72;;;0.26;100.00
48041;BME280;33815;48.386;11.738;2022-11-11T04:09:37;98044.44;;;0.21;100.00
48041;BME280;33815;48.386;11.738;2022-11-11T04:12:22;98038.44;;;0.22;100.00
48041;BME280;33815;48.386;11.738;2022-11-11T04:14:47;98043.34;;;0.28;100.00
48041;BME280;33815;48.386;11.738;2022-11-11T04:17:31;98039.13;;;0.27;100.00
48041;BME280;33815;48.386;11.738;2022-11-11T04:19:56;98045.91;;;0.28;100.00
48041;BME280;33815;48.386;11.738;2022-11-11T04:22:41;98046.72;;;0.30;100.00
48041;BME280;33815;48.386;11.738;2022-11-11T04:25:07;98044.28;;;0.25;100.00
48041;BME280;33815;48.386;11.738;2022-11-11T04:27:58;98042.38;;;0.32;100.00
48041;BME280;33815;48.386;11.738;2022-11-11T04:30:42;98044.75;;;0.38;100.00
48041;BME280;33815;48.386;11.738;2022-11-11T04:33:08;98046.44;;;0.38;100.00
48041;BME280;33815;48.386;11.738;2022-11-11T04:35:33;98049.03;;;0.38;100.00
48041;BME280;33815;48.386;11.738;2022-11-11T04:37:59;98034.03;;;0.25;100.00
48041;BME280;33815;48.386;11.738;2022-11-11T04:40:43;98051.63;;;0.36;100.00
48041;BME280;33815;48.386;11.738;2022-11-11T04:43:26;98058.16;;;0.46;100.00
48041;BME280;33815;48.386;11.738;2022-11-11T04:45:52;98053.91;;;0.45;100.00
48041;BME280;33815;48.386;11.738;2022-11-11T04:48:17;98016.25;;;0.21;100.00
48041;BME280;33815;48.386;11.738;2022-11-11T04:50:44;98048.28;;;0.34;100.00
48041;BME280;33815;48.386;11.738;2022-11-11T04:53:12;98045.72;;;0.34;100.00
48041;BME280;33815;48.386;11.738;2022-11-11T04:55:39;98041.59;;;0.30;100.00
48041;BME280;33815;48.386;11.738;2022-11-11T04:58:25;98046.50;;;0.36;100.00
48041;BME280;33815;48.386;11.738;2022-11-11T05:00:51;98049.88;;;0.38;100.00
48041;BME280;33815;48.386;11.738;2022-11-11T05:03:17;98047.38;;;0.37;100.00
48041;BME280;33815;48.386;11.738;2022-11-11T05:05:58;98055.13;;;0.33;100.00
48041;BME280;33815;48.386;11.738;2022-11-11T05:08:44;98038.38;;;0.23;100.00
48041;BME280;33815;48.386;11.738;2022-11-11T05:11:32;98054.31;;;0.33;100.00
48041;BME280;33815;48.386;11.738;2022-11-11T05:14:03;98049.06;;;0.36;100.00
48041;BME280;33815;48.386;11.738;2022-11-11T05:16:49;98050.88;;;0.34;100.00
48041;BME280;33815;48.386;11.738;2022-11-11T05:19:34;98058.75;;;0.28;100.00
48041;BME280;33815;48.386;11.738;2022-11-11T05:24:46;98063.19;;;0.23;100.00
48041;BME280;33815;48.386;11.738;2022-11-11T05:27:30;98065.84;;;0.20;100.00
48041;BME280;33815;48.386;11.738;2022-11-11T05:29:56;98070.03;;;0.22;100.00
48041;BME280;33815;48.386;11.738;2022-11-11T05:32:22;98066.59;;;0.23;100.00
48041;BME280;33815;48.386;11.738;2022-11-11T05:34:48;98074.94;;;0.30;100.00
48041;BME280;33815;48.386;11.738;2022-11-11T05:37:14;98069.00;;;0.28;100.00
48041;BME280;33815;48.386;11.738;2022-11-11T05:39:40;98065.88;;;0.18;100.00
48041;BME280;33815;48.386;11.738;2022-11-11T05:42:05;98075.16;;;0.22;100.00
48041;BME280;33815;48.386;11.738;2022-11-11T05:44:31;98083.72;;;0.23;100.00
48041;BME280;33815;48.386;11.738;2022-11-11T05:46:56;98088.13;;;0.17;100.00
48041;BME280;33815;48.386;11.738;2022-11-11T05:49:22;98078.09;;;0.11;100.00
48041;BME280;33815;48.386;11.738;2022-11-11T05:51:49;98095.69;;;0.22;100.00
48041;BME280;33815;48.386;11.738;2022-11-11T05:54:15;98083.44;;;0.30;100.00
48041;BME280;33815;48.386;11.738;2022-11-11T05:56:40;98089.56;;;0.26;100.00
48041;BME280;33815;48.386;11.738;2022-11-11T05:59:06;98091.53;;;0.18;100.00
48041;BME280;33815;48.386;11.738;2022-11-11T06:01:32;98104.56;;;0.12;100.00
48041;BME280;33815;48.386;11.738;2022-11-11T06:03:57;98105.72;;;0.02;100.00
48041;BME280;33815;48.386;11.738;2022-11-11T06:06:23;98110.97;;;-0.03;100.00
48041;BME280;33815;48.386;11.738;2022-11-11T06:08:48;98101.03;;;-0.12;100.00
48041;BME280;33815;48.386;11.738;2022-11-11T06:11:13;98117.22;;;-0.12;100.00
48041;BME280;33815;48.386;11.738;2022-11-11T06:13:38;98130.88;;;-0.11;100.00
48041;BME280;33815;48.386;11.738;2022-11-11T06:16:04;98142.81;;;-0.10;100.00
48041;BME280;33815;48.386;11.738;2022-11-11T06:18:30;98145.31;;;-0.09;100.00
48041;BME280;33815;48.386;11.738;2022-11-11T06:20:56;98152.19;;;-0.09;100.00
48041;BME280;33815;48.386;11.738;2022-11-11T06:23:22;98154.56;;;-0.03;100.00
48041;BME280;33815;48.386;11.738;2022-11-11T06:25:48;98155.38;;;-0.01;100.00
48041;BME280;33815;48.386;11.738;2022-11-11T06:28:32;98134.91;;;-0.03;100.00
48041;BME280;33815;48.386;11.738;2022-11-11T06:30:57;98156.59;;;0.15;100.00
48041;BME280;33815;48.386;11.738;2022-11-11T06:33:23;98160.63;;;0.23;100.00
48041;BME280;33815;48.386;11.738;2022-11-11T06:35:48;98164.84;;;0.24;100.00
48041;BME280;33815;48.386;11.738;2022-11-11T06:38:14;98173.22;;;0.30;100.00
48041;BME280;33815;48.386;11.738;2022-11-11T06:40:41;98169.78;;;0.31;100.00
48041;BME280;33815;48.386;11.738;2022-11-11T06:43:06;98170.47;;;0.37;100.00
48041;BME280;33815;48.386;11.738;2022-11-11T06:45:32;98155.22;;;0.32;100.00
48041;BME280;33815;48.386;11.738;2022-11-11T06:47:59;98167.75;;;0.41;100.00
48041;BME280;33815;48.386;11.738;2022-11-11T06:50:25;98177.91;;;0.44;100.00
48041;BME280;33815;48.386;11.738;2022-11-11T06:52:50;98191.06;;;0.62;100.00
48041;BME280;33815;48.386;11.738;2022-11-11T06:55:16;98190.75;;;0.71;100.00
48041;BME280;33815;48.386;11.738;2022-11-11T06:57:41;98186.31;;;0.76;100.00
48041;BME280;33815;48.386;11.738;2022-11-11T07:00:07;98170.94;;;0.76;100.00
48041;BME280;33815;48.386;11.738;2022-11-11T07:02:32;98187.53;;;0.91;100.00
48041;BME280;33815;48.386;11.738;2022-11-11T07:04:58;98177.31;;;0.90;100.00
48041;BME280;33815;48.386;11.738;2022-11-11T07:07:24;98186.47;;;0.98;100.00
48041;BME280;33815;48.386;11.738;2022-11-11T07:09:49;98186.53;;;0.97;100.00
48041;BME280;33815;48.386;11.738;2022-11-11T07:12:14;98193.97;;;1.05;100.00
48041;BME280;33815;48.386;11.738;2022-11-11T07:14:40;98194.66;;;1.10;100.00
48041;BME280;33815;48.386;11.738;2022-11-11T07:17:05;98192.63;;;1.19;100.00
48041;BME280;33815;48.386;11.738;2022-11-11T07:19:30;98192.38;;;1.26;100.00
48041;BME280;33815;48.386;11.738;2022-11-11T07:21:56;98179.81;;;1.18;100.00
48041;BME280;33815;48.386;11.738;2022-11-11T07:24:21;98194.91;;;1.27;100.00
48041;BME280;33815;48.386;11.738;2022-11-11T07:26:46;98173.81;;;1.17;100.00
48041;BME280;33815;48.386;11.738;2022-11-11T07:29:12;98192.19;;;1.32;100.00
48041;BME280;33815;48.386;11.738;2022-11-11T07:31:39;98187.78;;;1.35;100.00
48041;BME280;33815;48.386;11.738;2022-11-11T07:34:04;98185.16;;;1.37;100.00
48041;BME280;33815;48.386;11.738;2022-11-11T07:36:29;98193.09;;;1.31;100.00
48041;BME280;33815;48.386;11.738;2022-11-11T07:38:55;98192.03;;;1.36;100.00
48041;BME280;33815;48.386;11.738;2022-11-11T07:41:20;98191.97;;;1.38;100.00
48041;BME280;33815;48.386;11.738;2022-11-11T07:43:45;98192.66;;;1.43;100.00
48041;BME280;33815;48.386;11.738;2022-11-11T07:46:11;98191.56;;;1.50;100.00
48041;BME280;33815;48.386;11.738;2022-11-11T07:48:36;98191.50;;;1.52;100.00
48041;BME280;33815;48.386;11.738;2022-11-11T07:51:01;98164.94;;;1.51;100.00
48041;BME280;33815;48.386;11.738;2022-11-11T07:53:27;98185.13;;;1.62;100.00
48041;BME280;33815;48.386;11.738;2022-11-11T07:55:52;98183.06;;;1.72;100.00
48041;BME280;33815;48.386;11.738;2022-11-11T07:58:18;98171.56;;;1.59;100.00
48041;BME280;33815;48.386;11.738;2022-11-11T08:00:43;98169.06;;;1.56;100.00
48041;BME280;33815;48.386;11.738;2022-11-11T08:03:08;98167.75;;;1.69;100.00
48041;BME280;33815;48.386;11.738;2022-11-11T08:05:34;98174.66;;;1.67;100.00
48041;BME280;33815;48.386;11.738;2022-11-11T08:08:03;98172.09;;;1.67;100.00
48041;BME280;33815;48.386;11.738;2022-11-11T08:10:29;98169.31;;;1.73;100.00
48041;BME280;33815;48.386;11.738;2022-11-11T08:12:55;98172.06;;;1.68;100.00
48041;BME280;33815;48.386;11.738;2022-11-11T08:15:39;98158.41;;;1.66;100.00
48041;BME280;33815;48.386;11.738;2022-11-11T08:18:04;98152.56;;;1.63;100.00
48041;BME280;33815;48.386;11.738;2022-11-11T08:20:29;98158.91;;;1.76;100.00
48041;BME280;33815;48.386;11.738;2022-11-11T08:22:55;98157.91;;;1.80;100.00
48041;BME280;33815;48.386;11.738;2022-11-11T08:25:22;98165.34;;;1.88;100.00
48041;BME280;33815;48.386;11.738;2022-11-11T08:27:47;98157.47;;;1.93;100.00
48041;BME280;33815;48.386;11.738;2022-11-11T08:30:13;98154.03;;;1.92;100.00
48041;BME280;33815;48.386;11.738;2022-11-11T08:32:39;98158.91;;;2.00;100.00
48041;BME280;33815;48.386;11.738;2022-11-11T08:35:04;98150.44;;;1.98;100.00
48041;BME280;33815;48.386;11.738;2022-11-11T08:37:29;98164.88;;;2.00;100.00
48041;BME280;33815;48.386;11.738;2022-11-11T08:39:55;98162.31;;;2.00;100.00
48041;BME280;33815;48.386;11.738;2022-11-11T08:42:21;98159.66;;;2.03;100.00
48041;BME280;33815;48.386;11.738;2022-11-11T08:44:47;98159.41;;;2.10;100.00
48041;BME280;33815;48.386;11.738;2022-11-11T08:47:12;98156.22;;;2.25;100.00
48041;BME280;33815;48.386;11.738;2022-11-11T08:49:37;98158.75;;;2.27;100.00
48041;BME280;33815;48.386;11.738;2022-11-11T08:52:03;98165.09;;;2.40;100.00
48041;BME280;33815;48.386;11.738;2022-11-11T08:54:28;98171.56;;;2.50;100.00
48041;BME280;33815;48.386;11.738;2022-11-11T08:56:55;98180.34;;;2.67;100.00
48041;BME280;33815;48.386;11.738;2022-11-11T08:59:20;98186.66;;;2.80;100.00
48041;BME280;33815;48.386;11.738;2022-11-11T09:01:45;98190.19;;;2.78;100.00
48041;BME280;33815;48.386;11.738;2022-11-11T09:04:11;98189.63;;;2.71;100.00
48041;BME280;33815;48.386;11.738;2022-11-11T09:06:36;98177.03;;;2.63;100.00
48041;BME280;33815;48.386;11.738;2022-11-11T09:09:01;98184.28;;;2.76;100.00
48041;BME280;33815;48.386;11.738;2022-11-11T09:11:27;98186.34;;;3.08;100.00
48041;BME280;33815;48.386;11.738;2022-11-11T09:13:52;98189.72;;;3.31;100.00
48041;BME280;33815;48.386;11.738;2022-11-11T09:16:17;98188.22;;;3.46;100.00
48041;BME280;33815;48.386;11.738;2022-11-11T09:18:43;98188.47;;;3.60;100.00
48041;BME280;33815;48.386;11.738;2022-11-11T09:21:08;98183.25;;;3.81;100.00
48041;BME280;33815;48.386;11.738;2022-11-11T09:23:33;98169.63;;;3.79;100.00
48041;BME280;33815;48.386;11.738;2022-11-11T09:26:00;98182.44;;;4.00;100.00
48041;BME280;33815;48.386;11.738;2022-11-11T09:28:29;98185.88;;;4.00;100.00
48041;BME280;33815;48.386;11.738;2022-11-11T09:30:58;98178.69;;;4.07;100.00
48041;BME280;33815;48.386;11.738;2022-11-11T09:33:23;98194.28;;;4.23;100.00
48041;BME280;33815;48.386;11.738;2022-11-11T09:35:48;98185.13;;;4.35;100.00
48041;BME280;33815;48.386;11.738;2022-11-11T09:38:13;98182.88;;;4.46;100.00
48041;BME280;33815;48.386;11.738;2022-11-11T09:43:28;98196.16;;;4.75;100.00
48041;BME280;33815;48.386;11.738;2022-11-11T09:46:12;98197.25;;;4.88;100.00
48041;BME280;33815;48.386;11.738;2022-11-11T09:51:19;98188.66;;;5.23;100.00
48041;BME280;33815;48.386;11.738;2022-11-11T09:53:50;98175.19;;;5.34;100.00
48041;BME280;33815;48.386;11.738;2022-11-11T09:56:19;98162.44;;;5.64;100.00
48041;BME280;33815;48.386;11.738;2022-11-11T09:58:50;98146.59;;;5.70;100.00
48041;BME280;33815;48.386;11.738;2022-11-11T10:01:20;98172.53;;;6.02;100.00
48041;BME280;33815;48.386;11.738;2022-11-11T10:04:16;98163.09;;;6.33;100.00
48041;BME280;33815;48.386;11.738;2022-11-11T10:06:39;98176.34;;;6.75;100.00
48041;BME280;33815;48.386;11.738;2022-11-11T10:09:13;98176.78;;;6.97;100.00
48041;BME280;33815;48.386;11.738;2022-11-11T10:12:14;98178.41;;;6.98;100.00
48041;BME280;33815;48.386;11.738;2022-11-11T10:14:44;98181.53;;;7.19;100.00
48041;BME280;33815;48.386;11.738;2022-11-11T10:17:37;98183.03;;;7.24;100.00
48041;BME280;33815;48.386;11.738;2022-11-11T10:20:22;98171.59;;;7.42;100.00
48041;BME280;33815;48.386;11.738;2022-11-11T10:22:50;98177.06;;;7.66;100.00
48041;BME280;33815;48.386;11.738;2022-11-11T10:25:19;98186.31;;;7.70;100.00
48041;BME280;33815;48.386;11.738;2022-11-11T10:27:48;98184.03;;;7.66;100.00
48041;BME280;33815;48.386;11.738;2022-11-11T10:32:45;98193.38;;;7.97;100.00
48041;BME280;33815;48.386;11.738;2022-11-11T10:35:21;98191.22;;;7.89;100.00
48041;BME280;33815;48.386;11.738;2022-11-11T10:37:47;98191.31;;;8.02;100.00
48041;BME280;33815;48.386;11.738;2022-11-11T10:40:21;98181.63;;;8.19;100.00
48041;BME280;33815;48.386;11.738;2022-11-11T10:42:49;98173.69;;;8.07;100.00
48041;BME280;33815;48.386;11.738;2022-11-11T10:45:23;98189.06;;;8.25;100.00
48041;BME280;33815;48.386;11.738;2022-11-11T10:47:52;98175.94;;;8.41;100.00
48041;BME280;33815;48.386;11.738;2022-11-11T10:50:23;98186.22;;;8.57;100.00
48041;BME280;33815;48.386;11.738;2022-11-11T10:53:00;98178.63;;;8.94;100.00
48041;BME280;33815;48.386;11.738;2022-11-11T10:55:45;98173.97;;;8.99;100.00
48041;BME280;33815;48.386;11.738;2022-11-11T10:58:33;98170.09;;;8.92;100.00
48041;BME280;33815;48.386;11.738;2022-11-11T11:01:03;98162.50;;;8.89;99.58
48041;BME280;33815;48.386;11.738;2022-11-11T11:03:39;98162.78;;;9.37;100.00
48041;BME280;33815;48.386;11.738;2022-11-11T11:06:10;98163.69;;;9.62;100.00
48041;BME280;33815;48.386;11.738;2022-11-11T11:08:56;98168.63;;;9.54;100.00
48041;BME280;33815;48.386;11.738;2022-11-11T11:11:37;98165.56;;;9.73;100.00
48041;BME280;33815;48.386;11.738;2022-11-11T11:14:09;98171.47;;;10.01;100.00
48041;BME280;33815;48.386;11.738;2022-11-11T11:16:41;98162.16;;;10.09;99.81
48041;BME280;33815;48.386;11.738;2022-11-11T11:19:20;98168.22;;;10.10;98.78
48041;BME280;33815;48.386;11.738;2022-11-11T11:21:56;98155.75;;;10.26;97.45
48041;BME280;33815;48.386;11.738;2022-11-11T11:24:30;98138.00;;;10.07;95.95
48041;BME280;33815;48.386;11.738;2022-11-11T11:26:58;98138.84;;;10.08;95.34
48041;BME280;33815;48.386;11.738;2022-11-11T11:29:28;98145.72;;;10.09;94.85
48041;BME280;33815;48.386;11.738;2022-11-11T11:31:54;98139.50;;;9.86;92.82
48041;BME280;33815;48.386;11.738;2022-11-11T11:34:19;98143.09;;;9.59;96.32
48041;BME280;33815;48.386;11.738;2022-11-11T11:37:00;98136.72;;;9.63;96.61
48041;BME280;33815;48.386;11.738;2022-11-11T11:39:34;98149.97;;;9.60;98.92
48041;BME280;33815;48.386;11.738;2022-11-11T11:41:59;98149.53;;;9.66;97.88
48041;BME280;33815;48.386;11.738;2022-11-11T11:44:27;98155.69;;;9.65;99.26
48041;BME280;33815;48.386;11.738;2022-11-11T11:47:00;98164.41;;;9.90;97.64
48041;BME280;33815;48.386;11.738;2022-11-11T11:50:33;98157.25;;;9.81;97.81
48041;BME280;33815;48.386;11.738;2022-11-11T11:52:50;98146.63;;;9.58;99.49
48041;BME280;33815;48.386;11.738;2022-11-11T11:55:24;98128.53;;;9.69;98.52
48041;BME280;33815;48.386;11.738;2022-11-11T12:00:24;98142.41;;;10.31;97.71
48041;BME280;33815;48.386;11.738;2022-11-11T12:06:13;98149.75;;;9.89;95.77
48041;BME280;33815;48.386;11.738;2022-11-11T12:09:00;98144.75;;;10.23;97.61
48041;BME280;33815;48.386;11.738;2022-11-11T12:22:45;98130.19;;;10.07;97.54
48041;BME280;33815;48.386;11.738;2022-11-11T12:25:41;98130.56;;;10.14;95.53
48041;BME280;33815;48.386;11.738;2022-11-11T12:28:42;98139.00;;;9.93;97.96
48041;BME280;33815;48.386;11.738;2022-11-11T12:36:43;98130.44;;;10.28;98.01
48041;BME280;33815;48.386;11.738;2022-11-11T12:42:25;98136.47;;;10.29;95.78
48041;BME280;33815;48.386;11.738;2022-11-11T12:48:02;98136.34;;;10.43;91.46
48041;BME280;33815;48.386;11.738;2022-11-11T12:56:05;98125.75;;;10.58;94.53
48041;BME280;33815;48.386;11.738;2022-11-11T12:58:42;98116.25;;;10.92;93.52
48041;BME280;33815;48.386;11.738;2022-11-11T13:09:43;98099.94;;;11.13;90.21
48041;BME280;33815;48.386;11.738;2022-11-11T13:12:29;98109.09;;;11.19;90.14
48041;BME280;33815;48.386;11.738;2022-11-11T13:15:04;98111.47;;;11.56;90.44
48041;BME280;33815;48.386;11.738;2022-11-11T13:17:35;98107.47;;;11.74;86.68
48041;BME280;33815;48.386;11.738;2022-11-11T13:20:15;98107.81;;;11.58;86.97
48041;BME280;33815;48.386;11.738;2022-11-11T13:22:42;98095.34;;;11.62;86.78
48041;BME280;33815;48.386;11.738;2022-11-11T13:25:13;98100.31;;;11.65;86.64
48041;BME280;33815;48.386;11.738;2022-11-11T13:27:47;98102.09;;;11.87;86.15
48041;BME280;33815;48.386;11.738;2022-11-11T13:33:25;98092.50;;;11.54;86.84
48041;BME280;33815;48.386;11.738;2022-11-11T13:35:57;98113.13;;;11.91;87.27
48041;BME280;33815;48.386;11.738;2022-11-11T13:38:27;98111.63;;;11.77;86.85
48041;BME280;33815;48.386;11.738;2022-11-11T13:40:56;98111.63;;;11.77;87.09
48041;BME280;33815;48.386;11.738;2022-11-11T13:43:46;98113.25;;;11.66;86.17
48041;BME280;33815;48.386;11.738;2022-11-11T13:46:32;98113.38;;;11.31;88.15
48041;BME280;33815;48.386;11.738;2022-11-11T13:48:59;98112.91;;;11.37;88.66
48041;BME280;33815;48.386;11.738;2022-11-11T13:51:36;98111.72;;;11.30;90.81
48041;BME280;33815;48.386;11.738;2022-11-11T13:54:06;98109.59;;;11.69;85.60
48041;BME280;33815;48.386;11.738;2022-11-11T13:56:45;98108.66;;;11.47;86.67
48041;BME280;33815;48.386;11.738;2022-11-11T13:59:20;98123.59;;;11.45;88.95
48041;BME280;33815;48.386;11.738;2022-11-11T14:02:12;98116.13;;;11.52;83.94
48041;BME280;33815;48.386;11.738;2022-11-11T14:12:50;98115.06;;;10.85;89.35
48041;BME280;33815;48.386;11.738;2022-11-11T14:15:42;98116.59;;;10.88;89.21
48041;BME280;33815;48.386;11.738;2022-11-11T14:20:46;98113.44;;;10.60;90.84